Date,TemperatureHighF,TemperatureAvgF,TemperatureLowF,DewpointHighF,DewpointAvgF,DewpointLowF,HumidityHigh,HumidityAvg,HumidityLow,PressureMaxIn,PressureMinIn,WindSpeedMaxMPH,WindSpeedAvgMPH,GustSpeedMaxMPH,PrecipitationSumIn
2013-1-1,21,13,2,15,10,1,90,83,74,30.41,30.21,10,3,11,0.00
2013-1-2,38,23,7,30,20,6,93,85,73,30.32,30.14,12,3,12,0.00
2013-1-3,30,23,7,27,20,11,92,82,69,30.49,30.31,14,3,14,0.00
2013-1-4,31,17,7,21,14,9,99,83,66,30.39,30.22,11,4,14,0.00
2013-1-5,33,21,9,24,18,10,94,83,68,30.32,30.09,25,4,25,0.00
2013-1-6,34,21,6,25,18,8,92,81,68,30.40,30.19,14,3,15,0.00
2013-1-7,38,29,14,30,25,15,93,80,71,30.19,29.99,18,5,22,0.00
2013-1-8,38,24,11,31,22,10,93,87,76,30.22,29.92,17,3,18,0.00
2013-1-9,44,28,16,33,27,17,94,85,62,30.50,30.21,7,1,8,0.00
2013-1-10,38,32,21,36,32,22,96,92,72,30.38,29.72,13,2,14,0.22
2013-1-11,48,39,25,44,37,18,97,92,77,29.81,29.40,30,6,30,0.01
2013-1-12,25,19,11,20,10,6,82,73,61,30.24,29.81,24,8,29,0.00
2013-1-13,24,13,5,11,6,3,89,77,58,30.44,30.22,14,4,16,0.00
2013-1-14,30,14,2,15,9,0,98,79,53,30.57,30.44,12,2,13,0.00
2013-1-15,35,19,7,24,15,5,93,81,62,30.45,30.12,18,3,18,0.00
2013-1-16,53,34,19,36,28,17,92,77,54,30.29,30.00,12,4,16,0.00
2013-1-17,46,30,23,35,29,22,96,89,64,30.51,30.29,7,1,8,0.00
2013-1-18,51,35,24,36,30,25,95,80,56,30.33,29.93,19,6,21,0.00
2013-1-19,55,38,24,34,28,13,93,70,46,30.39,29.91,18,6,24,0.00
2013-1-20,24,18,11,17,10,8,90,72,56,30.50,30.35,9,3,13,0.00
2013-1-21,16,14,10,13,3,-3,91,64,52,30.55,30.45,12,4,15,0.00
2013-1-22,25,16,12,14,10,3,88,76,59,30.51,30.34,10,2,11,0.00
2013-1-23,33,20,9,21,14,6,92,77,57,30.56,30.28,15,4,19,0.00
2013-1-24,21,12,3,8,2,-3,77,65,52,30.61,30.26,12,5,17,0.00
2013-1-25,54,28,11,28,19,7,90,70,34,30.30,30.21,9,3,12,0.00
2013-1-26,57,35,18,31,23,15,93,67,31,30.30,30.02,18,4,22,0.00
2013-1-27,43,39,35,42,37,28,96,91,65,30.02,29.68,11,3,13,0.21
2013-1-28,43,38,34,43,38,33,97,97,96,29.89,29.59,9,2,11,0.01
2013-1-29,39,34,30,39,32,29,97,93,88,29.74,29.62,15,6,22,0.00
2013-1-30,30,20,4,29,17,6,95,86,73,30.02,29.71,20,7,28,0.00
2013-1-31,16,9,-5,13,2,-6,92,75,58,30.54,30.01,23,6,27,0.00
2013-2-1,29,16,-3,21,10,-4,90,78,70,30.52,30.16,20,6,23,0.00
2013-2-2,43,31,16,36,27,19,94,84,70,30.27,30.10,17,3,27,0.00
2013-2-3,44,33,19,34,28,20,95,79,59,30.27,29.83,17,5,22,0.00
2013-2-4,36,28,24,31,24,21,95,87,79,30.07,29.81,12,4,23,0.00
2013-2-5,54,36,27,35,29,25,94,77,41,30.11,29.90,14,4,20,0.00
2013-2-6,58,40,27,44,35,26,93,79,58,30.11,29.85,16,4,21,0.00
2013-2-7,39,34,29,37,30,26,95,86,81,30.30,29.91,14,4,19,0.00
2013-2-8,39,31,27,32,27,23,92,85,74,30.39,30.17,13,4,14,0.00
2013-2-9,53,40,30,41,34,28,91,81,64,30.18,29.65,17,7,22,0.00
2013-2-10,44,37,31,43,34,25,96,86,73,29.89,29.27,35,12,36,0.05
2013-2-11,42,32,21,27,24,20,91,72,53,30.21,29.89,27,9,34,0.00
2013-2-12,50,29,16,29,22,16,94,74,38,30.21,29.96,17,4,20,0.00
2013-2-13,56,35,18,32,27,18,94,72,37,29.97,29.78,20,4,22,0.00
2013-2-14,46,35,20,33,27,15,94,74,42,30.34,29.86,24,8,28,0.00
2013-2-15,35,24,12,26,18,11,93,79,57,30.43,30.34,19,4,24,0.00
2013-2-16,39,24,10,27,19,10,91,79,56,30.42,30.06,14,4,20,0.00
2013-2-17,61,39,21,36,29,19,92,70,37,30.05,29.58,18,5,20,0.00
2013-2-18,40,32,19,33,26,16,92,76,54,30.14,29.55,21,7,29,0.01
2013-2-19,30,19,9,18,6,0,86,62,30,30.45,30.14,19,7,24,0.00
2013-2-20,24,16,6,17,7,1,84,71,57,30.47,30.27,15,6,16,0.00
2013-2-21,24,22,21,20,16,11,92,78,58,30.32,29.91,18,9,23,0.00
2013-2-22,26,17,-1,19,13,1,92,86,77,30.13,29.91,13,5,16,0.02
2013-2-23,36,16,-3,28,14,-2,90,83,73,30.10,29.92,14,3,16,0.01
2013-2-24,44,29,13,30,25,18,94,82,57,30.13,29.96,9,2,12,0.00
2013-2-25,35,30,27,29,26,23,91,85,75,30.13,29.95,17,6,19,0.00
2013-2-26,32,28,24,27,25,22,93,90,81,30.00,29.87,12,6,16,0.00
2013-2-27,41,31,25,29,24,21,93,80,59,30.10,29.97,23,10,25,0.00
2013-3-3,45,39,32,34,32,27,83,74,65,29.93,29.72,14,8,18,0.00
2013-3-4,41,34,27,34,29,20,94,83,69,30.11,29.66,14,4,25,0.00
2013-3-5,36,28,21,22,19,16,83,72,55,30.47,30.09,29,11,34,0.00
2013-3-6,41,28,17,24,20,16,92,74,48,30.50,30.28,12,4,15,0.00
2013-3-7,56,37,24,32,26,20,86,69,37,30.32,30.11,17,6,18,0.00
2013-3-8,60,42,26,43,33,23,93,75,50,30.21,29.93,16,6,23,0.16
2013-3-9,59,47,34,54,44,32,95,91,80,29.93,29.54,23,6,27,0.26
2013-3-10,34,27,21,32,25,20,100,94,92,30.04,29.74,23,10,34,0.00
2013-3-11,31,22,10,22,18,9,95,92,87,30.11,29.97,15,6,21,0.11
2013-3-12,35,24,10,25,21,13,94,85,71,30.41,30.09,23,6,27,0.01
2013-3-13,40,22,5,29,19,7,93,81,60,30.52,30.30,9,2,10,0.01
2013-3-14,62,40,25,44,33,24,94,74,47,30.30,30.10,8,2,10,0.00
2013-3-15,63,44,28,48,40,31,96,80,50,30.10,29.73,12,3,17,0.00
2013-3-16,42,32,27,40,27,23,92,84,75,30.21,29.85,16,6,20,0.00
2013-3-17,48,34,25,35,28,22,92,77,58,30.18,29.76,14,6,19,0.00
2013-3-18,44,35,20,35,24,15,95,69,39,30.12,29.73,28,9,33,0.06
2013-3-19,55,34,22,34,21,18,92,66,30,30.40,30.10,20,4,23,0.00
2013-3-20,40,26,16,18,13,6,85,60,35,30.46,30.16,14,5,18,0.00
2013-3-21,33,26,19,24,19,13,89,74,61,30.16,29.97,13,5,15,0.03
2013-3-22,35,30,27,27,24,21,90,77,65,30.09,30.01,8,3,10,0.01
2013-3-23,37,32,29,30,27,23,93,83,67,30.17,30.06,15,6,19,0.01
2013-3-24,31,27,24,28,21,16,92,80,67,30.18,30.11,21,9,25,0.01
2013-3-25,31,27,24,25,22,20,91,82,69,30.43,30.17,18,8,23,0.00
2013-3-26,44,30,15,23,20,14,91,68,40,30.45,30.28,8,3,13,0.00
2013-3-27,54,38,24,34,28,21,89,69,45,30.31,30.19,17,6,18,0.00
2013-3-28,60,40,20,36,31,22,96,69,39,30.29,30.17,10,3,16,0.00
2013-3-29,70,49,26,42,34,25,95,60,28,30.24,30.03,13,4,18,0.00
2013-3-30,68,56,49,56,47,38,96,75,38,30.09,29.90,18,4,25,0.91
2013-3-31,61,49,34,44,35,27,93,65,29,30.17,29.94,18,6,27,0.06
2013-4-1,43,32,22,32,21,15,93,69,36,30.39,30.17,14,5,19,0.01
2013-4-2,54,34,17,29,23,17,94,69,37,30.40,30.27,9,2,12,0.00
2013-4-3,56,39,25,30,26,22,87,63,36,30.38,30.24,18,5,18,0.00
2013-4-4,65,44,23,40,33,23,95,67,40,30.27,30.06,16,5,19,0.00
2013-4-5,71,50,28,42,35,28,93,60,29,30.18,29.70,22,7,30,0.00
2013-4-6,73,59,43,47,42,38,81,58,32,29.78,29.60,21,8,29,0.00
2013-4-7,73,54,36,51,43,35,94,69,32,29.83,29.57,18,4,25,0.36
2013-4-8,68,57,42,61,54,43,97,90,76,29.69,29.63,13,4,17,0.01
2013-4-9,63,45,33,60,44,32,95,93,89,30.02,29.52,23,8,30,0.46
2013-4-10,36,34,31,34,32,30,96,94,92,30.04,29.83,17,6,34,0.12
2013-4-11,37,32,29,33,29,27,95,90,85,29.88,29.72,24,10,24,0.05
2013-4-12,48,36,28,33,30,27,90,79,58,30.09,29.81,22,9,24,0.00
2013-4-13,58,41,22,43,34,23,95,76,53,30.09,29.66,18,6,24,0.06
2013-4-14,65,52,40,53,42,30,91,71,40,29.70,29.30,28,10,33,0.00
2013-4-15,48,40,33,33,28,23,88,67,50,30.13,29.70,18,6,19,0.00
2013-4-16,50,42,35,35,31,28,82,66,47,30.28,30.11,19,8,22,0.00
2013-4-17,45,41,36,40,37,34,95,88,67,30.18,29.75,17,7,25,0.46
2013-4-18,38,34,31,34,30,27,95,89,78,30.00,29.75,25,12,31,0.27
2013-4-19,50,37,26,29,25,23,87,67,40,30.17,29.95,20,9,25,0.00
2013-4-20,48,36,21,32,26,20,94,71,41,30.30,30.15,18,6,22,0.00
2013-4-21,68,54,42,49,40,32,94,62,38,30.18,29.97,30,8,34,0.17
2013-4-22,52,43,33,52,41,29,97,94,88,30.26,29.95,21,6,25,1.85
2013-4-23,41,33,24,29,26,22,88,76,58,30.33,30.22,19,6,25,0.00
2013-4-24,62,38,19,39,28,21,95,70,32,30.28,30.09,22,6,32,0.01
2013-4-25,70,48,24,40,34,26,95,62,29,30.30,30.01,22,7,32,0.00
2013-4-26,71,57,45,52,45,39,90,66,46,30.18,30.02,18,6,23,0.00
2013-4-27,71,54,38,54,48,39,100,80,48,30.19,29.93,10,3,12,0.00
2013-4-28,82,62,45,56,50,45,95,69,36,29.95,29.63,20,6,26,0.00
2013-4-29,83,66,52,59,52,46,90,65,31,29.77,29.45,9,3,15,0.00
2013-4-30,73,68,61,58,49,35,67,53,39,29.84,29.42,20,8,25,0.00
2013-5-1,61,41,33,43,37,32,95,86,46,30.48,29.83,24,9,33,0.61
2013-5-2,53,40,32,38,32,29,95,77,51,30.62,30.45,24,5,28,0.23
2013-5-3,53,41,29,35,30,27,92,69,41,30.45,30.09,20,6,27,0.00
2013-5-4,44,40,37,40,37,31,93,86,66,30.20,30.03,20,7,26,0.01
2013-5-5,55,47,41,49,43,39,91,85,77,30.23,30.14,12,4,15,0.00
2013-5-6,69,54,46,52,48,44,92,78,51,30.19,30.01,10,2,11,0.00
2013-5-7,72,56,38,60,52,42,97,83,53,30.09,29.91,10,2,13,0.12
2013-5-8,67,61,56,60,57,53,94,86,73,29.95,29.87,11,4,13,0.01
2013-5-9,68,60,55,59,56,53,95,88,69,30.00,29.83,13,4,20,0.00
2013-5-10,71,57,45,53,49,45,94,78,44,30.12,29.99,15,4,18,0.00
2013-5-11,64,52,33,48,34,23,95,58,26,30.28,30.04,21,5,28,0.00
2013-5-12,67,50,31,40,32,25,92,58,26,30.30,30.09,10,2,13,0.00
2013-5-13,84,64,40,56,46,37,93,59,27,30.11,29.80,23,6,26,0.00
2013-5-14,100,77,50,61,54,45,96,52,16,29.81,29.56,27,8,31,0.00
2013-5-15,85,71,58,55,46,41,65,46,27,29.83,29.67,20,7,23,0.00
2013-5-16,83,70,54,64,57,48,89,67,46,29.82,29.67,13,3,19,0.00
2013-5-17,86,73,56,63,60,56,94,67,44,29.83,29.71,12,3,16,0.00
2013-5-18,83,72,59,71,64,58,93,76,60,29.81,29.60,24,5,30,0.66
2013-5-19,78,66,57,69,62,56,96,88,69,29.70,29.41,19,3,26,0.38
2013-5-20,76,65,57,61,56,51,95,75,49,29.62,29.48,21,9,25,0.00
2013-5-21,66,58,51,56,50,47,92,79,62,29.74,29.58,21,10,25,0.00
2013-5-22,62,55,49,51,49,47,91,82,69,30.00,29.74,19,8,24,0.00
2013-5-23,73,59,51,54,49,46,93,74,42,30.21,30.00,17,5,18,0.00
2013-5-24,75,62,48,56,51,45,90,68,51,30.27,29.96,18,5,25,0.00
2013-5-25,80,69,60,72,63,52,95,80,67,30.09,29.86,15,5,18,0.57
2013-5-26,84,74,68,72,68,65,88,80,65,29.91,29.73,15,4,17,0.00
2013-5-27,79,69,60,69,64,59,96,84,63,29.83,29.51,22,6,27,2.39
2013-5-28,81,70,60,69,64,60,96,82,60,29.67,29.55,12,2,25,0.00
2013-5-29,77,69,62,72,66,61,95,89,80,29.63,29.42,18,5,32,2.11
2013-5-30,77,66,59,66,60,53,95,83,54,29.58,29.44,20,5,23,0.08
2013-5-31,79,67,53,58,52,46,93,64,37,29.70,29.57,18,8,23,0.00
2013-6-1,67,59,54,54,51,48,87,76,65,30.04,29.65,26,10,31,0.00
2013-6-2,71,59,47,51,46,43,93,68,40,30.14,29.96,11,2,14,0.00
2013-6-3,75,62,46,56,51,45,95,71,49,30.02,29.75,15,4,21,0.00
2013-6-4,76,66,59,65,60,56,92,82,69,29.95,29.80,15,2,18,0.01
2013-6-5,76,64,51,62,53,49,92,75,45,30.02,29.91,12,3,17,0.03
2013-6-6,76,60,47,57,51,48,97,77,47,29.99,29.93,11,2,19,0.00
2013-6-7,77,62,46,56,51,45,97,71,40,30.03,29.83,9,1,12,0.00
2013-6-8,74,64,58,68,59,51,95,83,69,29.84,29.60,13,2,23,0.93
2013-6-9,75,64,56,61,58,56,94,84,63,29.81,29.69,20,7,28,0.00
2013-6-10,83,68,50,66,59,50,97,75,50,29.86,29.70,11,2,14,0.01
2013-6-11,90,78,66,72,66,63,93,70,45,29.73,29.57,13,3,21,0.00
2013-6-12,89,76,61,73,65,54,96,70,46,29.97,29.55,19,5,22,0.15
2013-6-13,78,64,54,65,58,54,95,81,47,30.06,29.92,9,1,11,0.06
2013-6-14,91,74,60,77,66,59,94,77,44,29.98,29.64,21,4,27,0.01
2013-6-15,81,74,66,70,67,62,94,79,59,29.88,29.73,18,3,22,0.02
2013-6-16,87,74,63,70,65,61,96,77,44,29.94,29.84,10,1,12,0.01
2013-6-17,90,75,61,64,60,56,92,66,37,29.96,29.86,8,1,13,0.00
2013-6-18,83,71,58,64,60,56,94,72,42,30.01,29.88,9,1,13,0.00
2013-6-19,86,73,60,71,64,59,95,74,50,29.93,29.79,12,2,19,0.01
2013-6-20,90,80,69,74,70,63,85,71,58,29.86,29.68,20,4,23,0.00
2013-6-21,96,84,76,74,72,67,82,67,41,29.75,29.64,16,6,22,0.00
2013-6-22,90,79,66,75,68,60,94,70,49,29.90,29.65,22,6,26,0.21
2013-6-23,80,73,63,72,67,61,94,82,60,29.86,29.65,15,3,22,0.46
2013-6-24,85,75,70,77,71,67,95,86,73,29.86,29.60,21,3,28,0.74
2013-6-25,88,79,70,80,72,64,93,78,63,29.69,29.55,13,2,19,0.00
2013-6-26,94,79,69,75,69,62,96,76,39,29.79,29.57,8,1,12,0.00
2013-6-27,84,71,65,75,68,65,96,89,65,29.93,29.78,13,2,21,0.34
2013-6-28,86,74,62,68,63,56,97,75,43,29.95,29.84,14,3,19,0.00
2013-6-29,81,69,58,62,59,56,94,74,46,29.90,29.84,19,4,24,0.00
2013-6-30,77,66,55,62,57,53,96,77,49,30.07,29.90,11,2,17,0.00
2013-7-1,82,66,49,62,55,50,97,74,40,30.17,30.06,11,1,14,0.00
2013-7-2,82,66,54,65,58,53,95,78,43,30.12,30.00,6,0,12,0.00
2013-7-3,84,69,54,65,59,54,97,74,37,30.04,29.87,5,0,10,0.00
2013-7-4,85,72,57,64,58,54,91,65,38,29.93,29.79,16,3,17,0.00
2013-7-5,87,76,65,67,62,58,83,64,47,29.84,29.72,16,3,22,0.00
2013-7-6,87,78,71,70,64,59,72,65,54,29.78,29.67,16,3,21,0.00
2013-7-7,91,80,72,77,68,62,89,69,51,29.81,29.69,14,4,21,0.00
2013-7-8,89,80,74,77,71,67,88,75,61,29.87,29.78,16,3,18,0.00
2013-7-9,97,84,73,76,71,64,86,68,47,29.85,29.73,12,2,15,0.00
2013-7-10,85,75,66,71,67,63,93,77,54,30.02,29.86,12,2,14,0.00
2013-7-11,87,74,62,66,63,60,94,71,46,30.05,29.86,13,2,15,0.00
2013-7-12,93,81,70,74,67,59,74,64,52,29.91,29.78,14,3,19,0.00
2013-7-13,92,82,72,77,72,68,90,72,54,29.86,29.77,17,3,20,0.35
2013-7-14,86,76,67,69,66,61,91,72,46,30.06,29.84,10,2,17,0.16
2013-7-15,88,74,59,72,66,59,96,76,49,30.13,30.01,10,1,15,0.00
2013-7-16,89,77,65,72,67,64,94,74,49,30.19,30.10,11,2,14,0.00
2013-7-17,90,79,65,72,69,66,96,74,52,30.22,30.06,10,2,14,0.00
2013-7-18,91,80,69,72,69,66,91,71,50,30.08,29.81,17,5,22,0.00
2013-7-19,91,80,67,74,69,64,91,71,46,29.86,29.77,11,2,16,0.00
2013-7-20,88,74,61,69,64,54,96,72,36,29.91,29.75,13,2,13,0.00
2013-7-21,91,77,67,74,70,65,94,78,55,29.83,29.66,13,2,13,0.00
2013-7-22,96,80,63,77,70,64,97,74,40,29.75,29.64,12,2,14,0.00
2013-7-23,81,71,64,70,65,62,94,81,64,29.94,29.74,16,3,21,0.24
2013-7-24,85,71,57,68,63,56,97,80,54,30.04,29.91,12,0,13,0.00
2013-7-25,79,71,65,70,66,63,93,83,65,29.98,29.91,13,2,15,0.00
2013-7-26,79,68,53,68,60,52,96,76,46,30.06,29.91,15,2,24,0.00
2013-7-27,76,62,50,54,51,46,95,72,39,30.11,29.96,13,1,14,0.00
2013-7-28,78,62,45,58,52,45,97,72,43,30.05,29.94,9,0,10,0.00
2013-7-29,65,63,58,65,61,56,96,92,84,30.00,29.95,10,1,11,0.69
2013-7-30,78,70,64,69,66,64,97,89,71,30.08,29.98,7,0,8,0.01
2013-7-31,89,72,61,72,67,61,97,83,54,30.11,29.96,9,0,10,0.00
2013-8-1,86,71,59,72,66,59,97,83,53,30.04,29.81,20,2,24,0.66
2013-8-2,83,73,64,72,68,62,96,83,66,29.93,29.73,15,3,18,0.04
2013-8-3,77,68,61,66,62,59,93,82,64,30.12,29.94,11,2,13,0.00
2013-8-4,77,68,60,70,63,58,94,84,70,30.12,29.94,14,2,16,0.00
2013-8-5,86,76,69,76,72,67,94,87,71,29.98,29.75,14,2,16,0.00
2013-8-6,87,76,66,78,72,66,97,85,69,29.85,29.69,15,2,16,0.00
2013-8-7,84,72,63,71,66,61,96,81,52,29.92,29.75,11,1,11,0.00
2013-8-8,79,68,62,68,65,60,95,87,67,29.96,29.88,5,0,6,0.00
2013-8-9,80,71,59,71,65,59,97,83,56,30.09,29.96,11,1,12,0.00
2013-8-10,83,69,53,68,62,53,97,79,58,30.15,30.00,14,2,15,0.00
2013-8-11,85,73,61,72,66,60,94,81,62,30.06,29.90,15,3,16,0.03
2013-8-12,84,73,63,72,67,62,96,83,52,30.01,29.92,12,2,14,0.03
2013-8-13,79,68,58,64,61,56,95,79,49,30.11,30.01,9,1,10,0.00
2013-8-14,75,65,53,65,60,53,96,83,60,30.14,30.00,9,1,11,0.06
2013-8-15,69,65,63,65,62,60,95,89,76,30.05,29.96,10,2,12,0.52
2013-8-16,74,66,60,64,61,60,95,84,66,30.12,30.04,10,1,12,0.00
2013-8-17,79,69,60,62,60,56,91,75,53,30.14,30.03,14,2,15,0.00
2013-8-18,80,66,52,66,60,52,97,79,56,30.11,29.97,16,2,16,0.00
2013-8-19,85,74,63,71,67,61,93,79,62,30.01,29.83,17,4,20,0.00
2013-8-20,88,78,68,73,70,66,91,77,60,29.88,29.80,20,5,21,0.00
2013-8-21,91,79,68,75,70,66,92,75,57,29.91,29.82,15,4,17,0.00
2013-8-22,85,76,68,73,69,66,93,81,63,30.01,29.86,14,2,15,0.03
2013-8-23,90,79,69,74,70,68,95,76,53,29.99,29.86,19,2,19,0.00
2013-8-24,93,83,74,75,71,68,84,69,53,29.95,29.86,20,5,26,0.00
2013-8-25,94,83,73,74,72,69,87,70,49,30.01,29.91,20,6,21,0.00
2013-8-26,94,83,73,74,71,69,88,68,49,29.97,29.84,18,6,20,0.00
2013-8-27,95,82,72,72,69,65,84,66,45,29.86,29.77,17,6,20,0.00
2013-8-28,94,79,64,72,67,62,92,69,43,29.91,29.82,13,2,15,0.00
2013-8-29,97,79,63,75,70,64,96,75,45,29.91,29.79,15,2,20,0.00
2013-8-30,101,80,66,79,72,66,95,76,39,29.83,29.73,11,1,13,0.00
2013-8-31,96,79,70,76,71,68,95,78,42,29.82,29.66,12,1,16,0.00
2013-9-1,87,74,57,71,64,56,95,73,39,29.94,29.66,19,2,21,0.03
2013-9-2,83,65,52,63,58,53,97,77,44,30.06,29.94,11,1,12,0.00
2013-9-3,86,67,49,64,58,49,97,74,46,30.06,29.95,13,1,13,0.00
2013-9-4,87,71,56,66,61,53,95,73,35,30.10,29.97,12,1,13,0.00
2013-9-5,89,75,64,66,63,61,90,69,43,30.11,29.99,15,1,15,0.00
2013-9-6,94,79,64,70,66,60,89,67,44,30.02,29.80,18,2,18,0.00
2013-9-7,95,79,70,73,69,65,90,73,41,29.83,29.77,14,2,17,0.00
2013-9-8,96,79,67,75,71,67,96,77,45,29.83,29.66,10,1,13,0.00
2013-9-9,98,83,71,71,63,57,80,54,28,29.75,29.67,22,5,25,0.00
2013-9-10,96,80,68,72,65,59,95,64,35,29.99,29.74,19,4,22,0.78
2013-9-11,81,72,68,74,70,68,97,91,75,30.06,29.94,10,0,10,0.62
2013-9-12,80,69,55,69,60,53,96,77,42,30.17,30.05,13,2,16,0.00
2013-9-13,76,61,48,56,53,48,97,77,43,30.19,30.01,11,0,13,0.00
2013-9-14,77,65,50,60,55,50,95,73,48,30.03,29.80,14,2,19,0.00
2013-9-15,69,65,61,66,60,56,95,84,73,30.20,29.79,17,3,18,0.21
2013-9-16,65,60,54,57,55,52,94,84,73,30.29,30.15,14,2,15,0.05
2013-9-17,75,65,58,69,63,56,96,91,78,30.16,29.81,15,1,16,0.17
2013-9-18,90,77,66,72,68,65,95,75,54,29.82,29.59,22,5,24,0.00
2013-9-19,82,69,54,68,61,51,95,80,57,29.98,29.63,18,3,19,0.25
2013-9-20,75,57,44,53,48,44,97,76,40,30.09,29.93,21,2,21,0.00
2013-9-21,79,60,42,57,51,41,97,74,43,30.02,29.79,13,1,15,0.00
2013-9-22,81,67,55,57,53,51,92,65,39,29.85,29.70,21,4,24,0.00
2013-9-23,77,66,53,56,52,48,85,63,41,29.77,29.62,24,5,27,0.00
2013-9-24,72,63,53,59,56,52,94,80,65,29.88,29.61,14,2,16,0.00
2013-9-25,79,63,47,63,57,47,97,79,56,29.90,29.67,16,2,18,0.00
2013-9-26,89,75,64,62,60,59,86,64,40,29.71,29.62,23,6,25,0.00
2013-9-27,88,78,70,65,61,59,72,58,44,29.73,29.62,28,6,28,0.00
2013-9-28,75,62,44,64,50,42,92,72,40,30.03,29.58,20,6,24,0.14
2013-9-29,78,58,40,50,44,41,96,66,30,30.05,29.84,19,4,22,0.00
2013-9-30,83,64,50,55,51,47,89,65,34,29.86,29.65,21,5,22,0.00
2013-10-1,82,65,50,55,51,47,95,67,32,29.91,29.72,13,2,14,0.00
2013-10-2,85,69,50,66,59,48,96,73,48,29.91,29.74,19,3,22,0.00
2013-10-3,80,68,60,68,63,59,95,83,65,29.84,29.62,20,2,20,1.74
2013-10-4,85,67,48,72,60,37,94,79,53,29.87,29.52,23,8,27,0.01
2013-10-5,54,46,41,38,36,34,85,70,54,29.93,29.85,25,11,28,0.00
2013-10-6,60,47,40,48,41,34,94,83,54,30.05,29.84,21,7,26,0.05
2013-10-7,75,54,36,45,41,35,95,67,30,30.11,29.96,15,3,18,0.00
2013-10-8,77,62,48,49,45,42,78,56,37,29.98,29.83,23,5,27,0.00
2013-10-9,79,65,54,56,51,47,78,62,42,29.94,29.85,17,4,20,0.00
2013-10-10,81,68,56,61,56,52,88,68,49,29.92,29.70,20,4,20,0.00
2013-10-11,78,66,48,61,52,41,85,65,28,29.86,29.56,27,8,29,0.00
2013-10-12,71,50,36,43,37,31,96,70,26,30.29,29.86,18,2,21,0.00
2013-10-13,70,51,34,42,37,32,95,65,33,30.43,30.26,13,2,14,0.00
2013-10-14,60,54,47,58,47,36,94,80,51,30.27,29.69,23,7,30,0.76
2013-10-15,55,48,43,49,41,37,88,79,66,30.12,29.81,27,11,29,0.01
2013-10-16,60,46,35,41,37,29,92,75,41,30.12,29.97,15,4,17,0.00
2013-10-17,63,44,30,44,37,30,96,79,52,30.11,29.93,21,4,22,0.00
2013-10-18,53,39,30,37,31,27,95,78,41,30.19,30.06,10,2,11,0.00
2013-10-19,67,43,28,40,34,27,94,76,37,30.06,29.83,16,3,22,0.00
2013-10-20,69,50,35,44,39,34,95,71,39,30.04,29.74,19,2,19,0.00
2013-10-21,59,41,27,41,35,28,95,79,45,30.13,29.94,14,2,17,0.00
2013-10-22,55,44,29,44,38,28,97,80,58,30.17,29.91,15,4,22,0.00
2013-10-23,55,39,26,43,35,25,96,84,60,30.27,30.07,13,2,16,0.00
2013-10-24,53,38,25,35,28,24,95,74,37,30.46,30.27,12,1,18,0.00
2013-10-25,60,42,23,36,30,22,94,67,39,30.46,30.11,21,6,26,0.00
2013-10-26,56,41,26,36,32,24,93,70,39,30.27,30.07,16,2,19,0.00
2013-10-27,72,45,23,40,32,22,93,66,30,30.19,29.83,16,4,23,0.00
2013-10-28,53,46,37,41,38,34,92,73,59,30.21,29.96,16,7,22,0.01
2013-10-29,51,47,43,51,45,41,96,93,86,30.18,29.96,14,4,17,0.12
2013-10-30,57,47,40,54,46,39,97,94,87,29.97,29.79,11,2,16,0.03
2013-10-31,62,43,33,48,38,32,97,84,48,29.80,29.54,18,3,28,0.01
2013-11-1,63,47,36,43,38,35,94,76,41,30.05,29.65,20,7,30,0.00
2013-11-2,62,44,30,38,33,30,94,72,34,30.23,30.04,12,3,14,0.00
2013-11-3,58,50,37,40,35,29,80,60,46,30.09,29.71,31,7,31,0.00
2013-11-4,59,48,30,43,38,29,92,70,47,30.15,29.75,14,2,20,0.00
2013-11-5,43,39,29,41,36,29,95,91,78,30.15,29.83,18,6,23,1.04
2013-11-6,46,36,27,37,32,27,95,88,69,30.32,30.09,12,4,20,0.01
2013-11-7,52,36,26,32,27,24,96,78,35,30.47,30.30,16,3,17,0.00
2013-11-8,62,46,30,41,35,27,91,67,39,30.30,29.75,33,5,33,0.00
2013-11-9,65,45,31,38,35,32,95,73,37,30.38,29.96,15,2,17,0.00
2013-11-10,55,40,26,38,32,25,95,74,43,30.42,30.17,11,1,13,0.00
2013-11-11,44,33,19,44,26,12,96,76,57,30.83,30.12,24,6,27,0.00
2013-11-12,36,21,8,14,11,6,91,68,33,30.96,30.63,11,2,12,0.00
2013-11-13,56,38,21,34,24,13,73,59,42,30.64,30.01,25,8,26,0.00
2013-11-14,56,40,26,39,31,25,91,70,51,30.01,29.92,15,-2,15,0.00
2013-11-15,57,40,22,44,34,24,95,78,51,29.94,29.60,16,2,18,0.00
2013-11-16,66,50,32,51,40,29,93,73,34,29.60,29.33,22,5,28,0.00
2013-11-17,60,46,30,43,36,29,92,70,45,30.08,29.30,30,5,30,0.00
2013-11-18,59,38,22,35,27,24,94,69,29,30.28,30.08,15,3,16,0.00
2013-11-19,62,47,29,37,29,24,82,54,32,30.20,29.86,28,6,30,0.00
2013-11-20,62,49,34,41,35,27,90,60,43,29.93,29.71,20,5,21,0.00
2013-11-21,36,27,21,34,22,16,94,80,70,30.66,29.92,24,7,24,0.00
2013-11-22,35,20,12,16,11,7,87,71,42,30.81,30.64,15,3,17,0.00
2013-11-23,26,18,8,17,9,3,89,71,41,30.97,30.71,14,4,16,0.00
2013-11-24,34,22,8,15,10,4,88,64,43,30.84,30.29,20,6,21,0.00
2013-11-25,48,32,23,32,23,11,88,69,47,30.30,30.18,17,4,18,0.00
2013-11-26,35,23,9,24,15,7,94,71,39,30.52,30.27,23,4,29,0.00
2013-11-27,36,21,5,20,13,3,91,70,45,30.52,30.13,18,4,18,0.00
2013-11-28,37,25,13,23,18,12,93,74,48,30.54,30.16,16,2,19,0.00
2013-11-29,50,29,10,30,21,9,93,72,46,30.55,30.18,13,2,17,0.00
2013-11-30,63,35,19,34,27,19,94,71,32,30.19,30.09,7,1,7,0.00
2013-12-1,50,32,19,32,27,20,99,77,51,30.20,29.89,7,0,10,0.00
2013-12-2,67,42,25,39,32,23,94,69,33,29.89,29.54,12,1,13,0.00
2013-12-3,44,36,28,35,32,27,91,83,68,29.73,29.51,17,3,17,0.00
2013-12-4,34,22,16,31,17,8,93,83,71,30.20,29.69,23,9,25,0.00
2013-12-5,18,12,6,8,1,-4,78,64,49,30.56,30.18,20,6,21,0.00
2013-12-6,15,6,-3,-3,-4,-7,79,64,45,30.84,30.55,14,3,17,0.00
2013-12-7,13,4,-6,8,-2,-10,87,75,56,30.88,30.50,12,2,12,0.00
2013-12-8,19,13,0,14,10,2,89,85,80,30.50,30.10,13,2,14,0.00
2013-12-9,17,3,-15,8,-2,-12,89,76,56,30.48,30.20,21,4,24,0.00
2013-12-10,30,21,5,27,15,7,90,76,64,30.37,30.19,19,4,25,0.03
2013-12-11,30,11,1,26,3,-4,85,72,55,30.76,30.34,19,4,22,0.00
2013-12-12,33,17,5,24,13,2,91,79,67,30.58,30.15,11,3,12,0.00
2013-12-13,30,18,5,25,16,4,92,86,77,30.19,29.95,19,2,19,0.00
2013-12-14,27,17,7,18,14,7,92,83,69,30.32,30.19,15,4,19,0.00
2013-12-15,32,22,12,26,20,12,93,86,75,30.25,30.03,7,1,9,0.00
2013-12-16,51,27,10,36,23,9,93,83,55,30.26,30.04,14,1,15,0.00
2013-12-17,46,30,19,30,23,19,95,77,40,30.37,30.14,18,3,19,0.00
2013-12-18,58,38,25,34,28,21,89,68,39,30.14,29.74,13,4,16,0.00
2013-12-19,34,28,17,29,23,14,93,81,71,29.98,29.75,20,6,24,0.00
2013-12-20,19,16,12,14,12,8,91,84,79,30.08,29.97,18,4,21,0.00
2013-12-21,26,21,16,19,16,13,92,82,69,29.99,29.86,18,3,19,0.00
2013-12-22,25,18,8,19,11,4,91,78,58,30.49,29.96,16,5,20,0.00
2013-12-23,17,9,1,5,-1,-4,82,68,47,30.72,30.48,15,4,16,0.00
2013-12-24,28,18,8,25,13,2,92,82,71,30.62,30.21,20,6,22,0.00
2013-12-25,46,26,12,30,21,13,94,77,47,30.38,30.30,22,4,27,0.00
2013-12-26,54,29,16,26,20,15,92,70,30,30.33,30.17,13,2,13,0.00
2013-12-27,63,34,14,31,23,13,93,66,25,30.33,30.11,27,4,28,0.00
2013-12-28,62,37,17,32,25,8,93,65,26,30.22,29.77,29,6,29,0.00
2013-12-29,18,10,1,9,-6,-13,76,55,26,30.47,30.21,26,6,29,0.00
2013-12-30,43,21,1,28,9,-7,86,60,44,30.39,30.16,27,6,30,0.00
2013-12-31,41,19,6,25,12,5,89,75,50,30.38,30.06,21,5,25,0.00
2014-1-1,12,9,5,6,4,0,89,80,76,30.54,30.20,16,6,19,0.00
2014-1-2,13,4,-5,4,0,-5,89,79,64,30.61,30.50,10,2,11,0.00